sensor_id;sensor_type;location;lat;lon;timestamp;P1;durP1;ratioP1;P2;durP2;ratioP2
71622;SDS011;59473;53.214;5.728;2023-08-30T00:02:18;8.45;;;5.28;;
71622;SDS011;59473;53.214;5.728;2023-08-30T00:04:43;9.80;;;5.50;;
71622;SDS011;59473;53.214;5.728;2023-08-30T00:07:08;9.00;;;4.93;;
71622;SDS011;59473;53.214;5.728;2023-08-30T00:09:35;8.83;;;4.97;;
71622;SDS011;59473;53.214;5.728;2023-08-30T00:12:01;10.73;;;5.53;;
71622;SDS011;59473;53.214;5.728;2023-08-30T00:14:26;9.20;;;5.03;;
71622;SDS011;59473;53.214;5.728;2023-08-30T00:16:51;9.00;;;5.43;;
71622;SDS011;59473;53.214;5.728;2023-08-30T00:19:16;8.40;;;5.30;;
71622;SDS011;59473;53.214;5.728;2023-08-30T00:21:42;8.63;;;5.13;;
71622;SDS011;59473;53.214;5.728;2023-08-30T00:24:07;10.53;;;4.97;;
71622;SDS011;59473;53.214;5.728;2023-08-30T00:26:33;12.90;;;5.33;;
71622;SDS011;59473;53.214;5.728;2023-08-30T00:28:58;13.10;;;5.23;;
71622;SDS011;59473;53.214;5.728;2023-08-30T00:31:23;10.23;;;5.43;;
71622;SDS011;59473;53.214;5.728;2023-08-30T00:33:48;11.73;;;5.27;;
71622;SDS011;59473;53.214;5.728;2023-08-30T00:36:14;9.10;;;5.32;;
71622;SDS011;59473;53.214;5.728;2023-08-30T00:38:39;9.07;;;5.30;;
71622;SDS011;59473;53.214;5.728;2023-08-30T00:41:04;10.17;;;5.20;;
71622;SDS011;59473;53.214;5.728;2023-08-30T00:43:29;13.37;;;5.30;;
71622;SDS011;59473;53.214;5.728;2023-08-30T00:45:55;11.37;;;5.60;;
71622;SDS011;59473;53.214;5.728;2023-08-30T00:48:20;9.53;;;5.57;;
71622;SDS011;59473;53.214;5.728;2023-08-30T00:50:46;10.63;;;5.43;;
71622;SDS011;59473;53.214;5.728;2023-08-30T00:53:11;8.57;;;4.90;;
71622;SDS011;59473;53.214;5.728;2023-08-30T00:55:37;10.50;;;5.80;;
71622;SDS011;59473;53.214;5.728;2023-08-30T00:58:03;9.80;;;5.77;;
71622;SDS011;59473;53.214;5.728;2023-08-30T01:00:29;8.77;;;5.15;;
71622;SDS011;59473;53.214;5.728;2023-08-30T01:02:55;12.57;;;5.60;;
71622;SDS011;59473;53.214;5.728;2023-08-30T01:05:20;9.13;;;5.25;;
71622;SDS011;59473;53.214;5.728;2023-08-30T01:07:46;9.43;;;5.27;;
71622;SDS011;59473;53.214;5.728;2023-08-30T01:10:11;10.57;;;5.20;;
71622;SDS011;59473;53.214;5.728;2023-08-30T01:12:43;8.80;;;5.20;;
71622;SDS011;59473;53.214;5.728;2023-08-30T01:15:10;9.02;;;5.25;;
71622;SDS011;59473;53.214;5.728;2023-08-30T01:17:37;11.90;;;5.40;;
71622;SDS011;59473;53.214;5.728;2023-08-30T01:20:05;11.05;;;5.43;;
71622;SDS011;59473;53.214;5.728;2023-08-30T01:28:01;10.07;;;5.70;;
71622;SDS011;59473;53.214;5.728;2023-08-30T01:30:28;11.25;;;5.70;;
71622;SDS011;59473;53.214;5.728;2023-08-30T01:32:54;9.10;;;5.30;;
71622;SDS011;59473;53.214;5.728;2023-08-30T01:35:20;10.98;;;5.47;;
71622;SDS011;59473;53.214;5.728;2023-08-30T01:37:47;10.15;;;5.90;;
71622;SDS011;59473;53.214;5.728;2023-08-30T01:40:13;9.68;;;5.40;;
71622;SDS011;59473;53.214;5.728;2023-08-30T01:42:38;10.07;;;5.73;;
71622;SDS011;59473;53.214;5.728;2023-08-30T01:45:04;10.90;;;5.97;;
71622;SDS011;59473;53.214;5.728;2023-08-30T01:47:30;9.20;;;5.80;;
71622;SDS011;59473;53.214;5.728;2023-08-30T01:49:56;11.90;;;6.20;;
71622;SDS011;59473;53.214;5.728;2023-08-30T01:52:22;10.20;;;5.70;;
71622;SDS011;59473;53.214;5.728;2023-08-30T01:54:47;11.63;;;6.70;;
71622;SDS011;59473;53.214;5.728;2023-08-30T01:57:13;9.70;;;5.57;;
71622;SDS011;59473;53.214;5.728;2023-08-30T01:59:38;9.70;;;5.73;;
71622;SDS011;59473;53.214;5.728;2023-08-30T02:02:03;12.37;;;6.13;;
71622;SDS011;59473;53.214;5.728;2023-08-30T02:04:29;14.88;;;6.65;;
71622;SDS011;59473;53.214;5.728;2023-08-30T02:06:57;12.00;;;6.05;;
71622;SDS011;59473;53.214;5.728;2023-08-30T02:10:08;10.70;;;6.55;;
71622;SDS011;59473;53.214;5.728;2023-08-30T02:12:14;12.80;;;6.30;;
71622;SDS011;59473;53.214;5.728;2023-08-30T02:14:40;11.20;;;6.80;;
71622;SDS011;59473;53.214;5.728;2023-08-30T02:17:08;10.48;;;6.05;;
71622;SDS011;59473;53.214;5.728;2023-08-30T02:19:33;10.57;;;6.72;;
71622;SDS011;59473;53.214;5.728;2023-08-30T02:21:59;12.17;;;6.93;;
71622;SDS011;59473;53.214;5.728;2023-08-30T02:24:24;11.23;;;6.27;;
71622;SDS011;59473;53.214;5.728;2023-08-30T02:26:49;14.70;;;6.87;;
71622;SDS011;59473;53.214;5.728;2023-08-30T02:29:14;12.27;;;7.13;;
71622;SDS011;59473;53.214;5.728;2023-08-30T02:31:40;15.07;;;7.43;;
71622;SDS011;59473;53.214;5.728;2023-08-30T02:34:05;14.47;;;6.93;;
71622;SDS011;59473;53.214;5.728;2023-08-30T02:36:30;13.00;;;7.07;;
71622;SDS011;59473;53.214;5.728;2023-08-30T02:38:55;13.23;;;7.13;;
71622;SDS011;59473;53.214;5.728;2023-08-30T02:41:21;12.00;;;8.00;;
71622;SDS011;59473;53.214;5.728;2023-08-30T02:43:46;13.07;;;7.27;;
71622;SDS011;59473;53.214;5.728;2023-08-30T02:46:11;12.03;;;7.00;;
71622;SDS011;59473;53.214;5.728;2023-08-30T02:48:36;12.47;;;7.37;;
71622;SDS011;59473;53.214;5.728;2023-08-30T02:51:02;12.40;;;6.93;;
71622;SDS011;59473;53.214;5.728;2023-08-30T02:53:27;13.40;;;7.83;;
71622;SDS011;59473;53.214;5.728;2023-08-30T02:55:52;14.10;;;8.40;;
71622;SDS011;59473;53.214;5.728;2023-08-30T02:58:20;11.93;;;7.40;;
71622;SDS011;59473;53.214;5.728;2023-08-30T03:00:45;11.95;;;7.57;;
71622;SDS011;59473;53.214;5.728;2023-08-30T03:03:11;11.93;;;7.10;;
71622;SDS011;59473;53.214;5.728;2023-08-30T03:05:36;17.67;;;7.10;;
71622;SDS011;59473;53.214;5.728;2023-08-30T03:08:01;12.23;;;7.73;;
71622;SDS011;59473;53.214;5.728;2023-08-30T03:10:26;14.85;;;7.80;;
71622;SDS011;59473;53.214;5.728;2023-08-30T03:12:52;12.73;;;7.53;;
71622;SDS011;59473;53.214;5.728;2023-08-30T03:15:17;13.43;;;7.37;;
71622;SDS011;59473;53.214;5.728;2023-08-30T03:17:42;11.70;;;7.67;;
71622;SDS011;59473;53.214;5.728;2023-08-30T03:20:07;14.73;;;8.10;;
71622;SDS011;59473;53.214;5.728;2023-08-30T03:22:33;16.13;;;8.10;;
71622;SDS011;59473;53.214;5.728;2023-08-30T03:24:58;15.87;;;8.77;;
71622;SDS011;59473;53.214;5.728;2023-08-30T03:27:23;14.57;;;9.10;;
71622;SDS011;59473;53.214;5.728;2023-08-30T03:29:49;14.63;;;9.07;;
71622;SDS011;59473;53.214;5.728;2023-08-30T03:32:16;17.03;;;9.33;;
71622;SDS011;59473;53.214;5.728;2023-08-30T03:34:43;17.23;;;9.38;;
71622;SDS011;59473;53.214;5.728;2023-08-30T03:37:09;18.02;;;9.70;;
71622;SDS011;59473;53.214;5.728;2023-08-30T03:39:34;18.13;;;9.63;;
71622;SDS011;59473;53.214;5.728;2023-08-30T03:42:00;16.10;;;9.20;;
71622;SDS011;59473;53.214;5.728;2023-08-30T03:44:25;19.23;;;9.77;;
71622;SDS011;59473;53.214;5.728;2023-08-30T03:46:50;15.90;;;9.70;;
71622;SDS011;59473;53.214;5.728;2023-08-30T03:49:15;16.23;;;9.37;;
71622;SDS011;59473;53.214;5.728;2023-08-30T03:51:40;16.37;;;9.27;;
71622;SDS011;59473;53.214;5.728;2023-08-30T03:54:06;17.53;;;9.33;;
71622;SDS011;59473;53.214;5.728;2023-08-30T03:56:31;18.00;;;10.00;;
71622;SDS011;59473;53.214;5.728;2023-08-30T03:58:56;17.53;;;9.33;;
71622;SDS011;59473;53.214;5.728;2023-08-30T04:01:21;17.97;;;9.67;;
71622;SDS011;59473;53.214;5.728;2023-08-30T04:03:47;16.60;;;9.60;;
71622;SDS011;59473;53.214;5.728;2023-08-30T04:06:12;19.23;;;10.43;;
71622;SDS011;59473;53.214;5.728;2023-08-30T04:08:37;20.67;;;11.20;;
71622;SDS011;59473;53.214;5.728;2023-08-30T04:11:02;17.87;;;10.03;;
71622;SDS011;59473;53.214;5.728;2023-08-30T04:13:28;19.38;;;10.93;;
71622;SDS011;59473;53.214;5.728;2023-08-30T04:15:53;20.77;;;10.67;;
71622;SDS011;59473;53.214;5.728;2023-08-30T04:18:18;18.30;;;9.67;;
71622;SDS011;59473;53.214;5.728;2023-08-30T04:20:44;20.70;;;10.43;;
71622;SDS011;59473;53.214;5.728;2023-08-30T04:23:10;20.67;;;10.67;;
71622;SDS011;59473;53.214;5.728;2023-08-30T04:25:36;19.80;;;10.88;;
71622;SDS011;59473;53.214;5.728;2023-08-30T04:28:01;20.77;;;11.07;;
71622;SDS011;59473;53.214;5.728;2023-08-30T04:30:27;19.88;;;10.60;;
71622;SDS011;59473;53.214;5.728;2023-08-30T04:32:52;17.83;;;10.63;;
71622;SDS011;59473;53.214;5.728;2023-08-30T04:35:17;17.13;;;10.23;;
71622;SDS011;59473;53.214;5.728;2023-08-30T04:37:43;17.13;;;10.07;;
71622;SDS011;59473;53.214;5.728;2023-08-30T04:40:09;20.87;;;11.07;;
71622;SDS011;59473;53.214;5.728;2023-08-30T04:42:34;21.08;;;11.07;;
71622;SDS011;59473;53.214;5.728;2023-08-30T04:45:00;20.63;;;10.17;;
71622;SDS011;59473;53.214;5.728;2023-08-30T04:47:26;20.88;;;10.77;;
71622;SDS011;59473;53.214;5.728;2023-08-30T04:49:51;21.43;;;12.50;;
71622;SDS011;59473;53.214;5.728;2023-08-30T04:52:16;18.63;;;11.50;;
71622;SDS011;59473;53.214;5.728;2023-08-30T04:54:42;22.70;;;10.77;;
71622;SDS011;59473;53.214;5.728;2023-08-30T04:57:07;19.17;;;10.20;;
71622;SDS011;59473;53.214;5.728;2023-08-30T04:59:33;20.53;;;11.70;;
71622;SDS011;59473;53.214;5.728;2023-08-30T05:01:58;21.00;;;11.40;;
71622;SDS011;59473;53.214;5.728;2023-08-30T05:04:24;21.37;;;11.23;;
71622;SDS011;59473;53.214;5.728;2023-08-30T05:06:49;21.80;;;11.38;;
71622;SDS011;59473;53.214;5.728;2023-08-30T05:09:14;17.88;;;10.48;;
71622;SDS011;59473;53.214;5.728;2023-08-30T05:11:40;22.83;;;12.48;;
71622;SDS011;59473;53.214;5.728;2023-08-30T05:14:05;21.13;;;11.13;;
71622;SDS011;59473;53.214;5.728;2023-08-30T05:16:30;19.87;;;11.53;;
71622;SDS011;59473;53.214;5.728;2023-08-30T05:18:56;21.17;;;10.87;;
71622;SDS011;59473;53.214;5.728;2023-08-30T05:21:21;19.47;;;10.53;;
71622;SDS011;59473;53.214;5.728;2023-08-30T05:23:46;26.53;;;10.97;;
71622;SDS011;59473;53.214;5.728;2023-08-30T05:26:12;19.15;;;10.40;;
71622;SDS011;59473;53.214;5.728;2023-08-30T05:28:38;21.40;;;11.70;;
71622;SDS011;59473;53.214;5.728;2023-08-30T05:31:03;22.13;;;11.13;;
71622;SDS011;59473;53.214;5.728;2023-08-30T05:33:28;19.67;;;10.90;;
71622;SDS011;59473;53.214;5.728;2023-08-30T05:35:53;20.23;;;11.03;;
71622;SDS011;59473;53.214;5.728;2023-08-30T05:38:19;22.80;;;11.90;;
71622;SDS011;59473;53.214;5.728;2023-08-30T05:40:44;23.45;;;12.05;;
71622;SDS011;59473;53.214;5.728;2023-08-30T05:43:10;19.48;;;10.82;;
71622;SDS011;59473;53.214;5.728;2023-08-30T05:45:35;21.37;;;12.17;;
71622;SDS011;59473;53.214;5.728;2023-08-30T05:48:00;20.87;;;11.60;;
71622;SDS011;59473;53.214;5.728;2023-08-30T05:50:26;20.43;;;10.83;;
71622;SDS011;59473;53.214;5.728;2023-08-30T05:52:51;20.30;;;11.27;;
71622;SDS011;59473;53.214;5.728;2023-08-30T05:55:16;21.33;;;11.60;;
71622;SDS011;59473;53.214;5.728;2023-08-30T05:57:41;21.00;;;10.93;;
71622;SDS011;59473;53.214;5.728;2023-08-30T06:00:07;24.40;;;10.93;;
71622;SDS011;59473;53.214;5.728;2023-08-30T06:02:33;21.35;;;10.68;;
71622;SDS011;59473;53.214;5.728;2023-08-30T06:04:58;19.87;;;10.83;;
71622;SDS011;59473;53.214;5.728;2023-08-30T06:07:24;19.30;;;11.30;;
71622;SDS011;59473;53.214;5.728;2023-08-30T06:09:49;20.27;;;11.07;;
71622;SDS011;59473;53.214;5.728;2023-08-30T06:12:14;18.50;;;9.80;;
71622;SDS011;59473;53.214;5.728;2023-08-30T06:14:39;19.30;;;10.20;;
71622;SDS011;59473;53.214;5.728;2023-08-30T06:17:05;18.57;;;10.93;;
71622;SDS011;59473;53.214;5.728;2023-08-30T06:19:30;19.67;;;10.67;;
71622;SDS011;59473;53.214;5.728;2023-08-30T06:21:55;19.97;;;10.63;;
71622;SDS011;59473;53.214;5.728;2023-08-30T06:24:21;17.17;;;9.70;;
71622;SDS011;59473;53.214;5.728;2023-08-30T06:26:46;18.63;;;10.77;;
71622;SDS011;59473;53.214;5.728;2023-08-30T06:29:12;18.53;;;11.37;;
71622;SDS011;59473;53.214;5.728;2023-08-30T06:31:37;17.63;;;9.90;;
71622;SDS011;59473;53.214;5.728;2023-08-30T06:34:04;19.25;;;9.75;;
71622;SDS011;59473;53.214;5.728;2023-08-30T06:36:29;22.80;;;10.63;;
71622;SDS011;59473;53.214;5.728;2023-08-30T06:38:54;17.83;;;10.33;;
71622;SDS011;59473;53.214;5.728;2023-08-30T06:41:20;20.20;;;10.33;;
71622;SDS011;59473;53.214;5.728;2023-08-30T06:43:45;18.33;;;9.30;;
71622;SDS011;59473;53.214;5.728;2023-08-30T06:46:10;19.20;;;10.10;;
71622;SDS011;59473;53.214;5.728;2023-08-30T06:48:35;16.07;;;9.03;;
71622;SDS011;59473;53.214;5.728;2023-08-30T06:51:01;22.83;;;9.40;;
71622;SDS011;59473;53.214;5.728;2023-08-30T06:53:26;14.53;;;8.40;;
71622;SDS011;59473;53.214;5.728;2023-08-30T06:56:00;15.20;;;8.10;;
71622;SDS011;59473;53.214;5.728;2023-08-30T06:58:26;15.30;;;8.10;;
71622;SDS011;59473;53.214;5.728;2023-08-30T07:00:51;17.00;;;8.37;;
71622;SDS011;59473;53.214;5.728;2023-08-30T07:03:16;15.07;;;7.93;;
71622;SDS011;59473;53.214;5.728;2023-08-30T07:05:42;17.20;;;8.65;;
71622;SDS011;59473;53.214;5.728;2023-08-30T07:08:08;14.68;;;8.90;;
71622;SDS011;59473;53.214;5.728;2023-08-30T07:10:34;14.53;;;8.63;;
71622;SDS011;59473;53.214;5.728;2023-08-30T07:12:59;16.60;;;8.33;;
71622;SDS011;59473;53.214;5.728;2023-08-30T07:15:25;15.10;;;8.15;;
71622;SDS011;59473;53.214;5.728;2023-08-30T07:17:50;14.70;;;8.70;;
71622;SDS011;59473;53.214;5.728;2023-08-30T07:20:15;17.13;;;8.77;;
71622;SDS011;59473;53.214;5.728;2023-08-30T07:22:40;16.40;;;9.20;;
71622;SDS011;59473;53.214;5.728;2023-08-30T07:25:06;16.50;;;8.53;;
71622;SDS011;59473;53.214;5.728;2023-08-30T07:27:31;18.00;;;8.77;;
71622;SDS011;59473;53.214;5.728;2023-08-30T07:29:56;17.73;;;8.07;;
71622;SDS011;59473;53.214;5.728;2023-08-30T07:32:22;15.23;;;8.50;;
71622;SDS011;59473;53.214;5.728;2023-08-30T07:34:47;17.77;;;8.33;;
71622;SDS011;59473;53.214;5.728;2023-08-30T07:37:19;18.43;;;8.43;;
71622;SDS011;59473;53.214;5.728;2023-08-30T07:39:45;14.18;;;7.88;;
71622;SDS011;59473;53.214;5.728;2023-08-30T07:42:10;19.57;;;8.77;;
71622;SDS011;59473;53.214;5.728;2023-08-30T07:44:35;16.23;;;9.10;;
71622;SDS011;59473;53.214;5.728;2023-08-30T07:47:00;15.23;;;8.43;;
71622;SDS011;59473;53.214;5.728;2023-08-30T07:49:25;16.67;;;9.50;;
71622;SDS011;59473;53.214;5.728;2023-08-30T07:51:51;19.17;;;9.07;;
71622;SDS011;59473;53.214;5.728;2023-08-30T07:54:16;16.90;;;7.80;;
71622;SDS011;59473;53.214;5.728;2023-08-30T07:56:41;16.77;;;8.50;;
71622;SDS011;59473;53.214;5.728;2023-08-30T07:59:06;14.07;;;7.93;;
71622;SDS011;59473;53.214;5.728;2023-08-30T08:01:32;15.87;;;8.23;;
71622;SDS011;59473;53.214;5.728;2023-08-30T08:03:57;15.97;;;8.47;;
71622;SDS011;59473;53.214;5.728;2023-08-30T08:06:22;16.17;;;7.87;;
71622;SDS011;59473;53.214;5.728;2023-08-30T08:08:47;15.40;;;7.90;;
71622;SDS011;59473;53.214;5.728;2023-08-30T08:11:12;15.80;;;7.93;;
71622;SDS011;59473;53.214;5.728;2023-08-30T08:13:38;18.50;;;8.07;;
71622;SDS011;59473;53.214;5.728;2023-08-30T08:16:03;13.03;;;7.17;;
71622;SDS011;59473;53.214;5.728;2023-08-30T08:18:28;14.13;;;7.10;;
71622;SDS011;59473;53.214;5.728;2023-08-30T08:20:54;15.30;;;6.03;;
71622;SDS011;59473;53.214;5.728;2023-08-30T08:23:19;11.27;;;5.67;;
71622;SDS011;59473;53.214;5.728;2023-08-30T08:25:44;9.50;;;5.23;;
71622;SDS011;59473;53.214;5.728;2023-08-30T08:28:09;13.27;;;5.97;;
71622;SDS011;59473;53.214;5.728;2023-08-30T08:30:35;13.30;;;5.57;;
71622;SDS011;59473;53.214;5.728;2023-08-30T08:33:01;13.88;;;5.30;;
71622;SDS011;59473;53.214;5.728;2023-08-30T08:35:26;10.37;;;5.30;;
71622;SDS011;59473;53.214;5.728;2023-08-30T08:37:51;12.73;;;5.33;;
71622;SDS011;59473;53.214;5.728;2023-08-30T08:40:17;11.70;;;4.93;;
71622;SDS011;59473;53.214;5.728;2023-08-30T08:42:42;13.00;;;5.20;;
71622;SDS011;59473;53.214;5.728;2023-08-30T08:45:08;8.93;;;4.05;;
71622;SDS011;59473;53.214;5.728;2023-08-30T08:47:34;10.38;;;4.82;;
71622;SDS011;59473;53.214;5.728;2023-08-30T08:49:59;8.00;;;4.17;;
71622;SDS011;59473;53.214;5.728;2023-08-30T08:52:26;10.80;;;4.93;;
71622;SDS011;59473;53.214;5.728;2023-08-30T08:54:51;8.60;;;4.10;;
71622;SDS011;59473;53.214;5.728;2023-08-30T08:57:17;7.55;;;4.07;;
71622;SDS011;59473;53.214;5.728;2023-08-30T08:59:42;14.00;;;4.63;;
71622;SDS011;59473;53.214;5.728;2023-08-30T09:02:08;10.70;;;4.83;;
71622;SDS011;59473;53.214;5.728;2023-08-30T09:04:36;9.63;;;4.88;;
71622;SDS011;59473;53.214;5.728;2023-08-30T09:07:02;14.90;;;5.67;;
71622;SDS011;59473;53.214;5.728;2023-08-30T09:09:27;10.57;;;4.77;;
71622;SDS011;59473;53.214;5.728;2023-08-30T09:11:52;9.37;;;4.40;;
71622;SDS011;59473;53.214;5.728;2023-08-30T09:14:18;10.03;;;5.30;;
71622;SDS011;59473;53.214;5.728;2023-08-30T09:16:53;10.30;;;5.18;;
71622;SDS011;59473;53.214;5.728;2023-08-30T09:19:19;10.02;;;4.50;;
71622;SDS011;59473;53.214;5.728;2023-08-30T09:21:51;9.70;;;4.30;;
71622;SDS011;59473;53.214;5.728;2023-08-30T09:24:17;10.25;;;4.78;;
71622;SDS011;59473;53.214;5.728;2023-08-30T09:26:46;8.67;;;4.10;;
71622;SDS011;59473;53.214;5.728;2023-08-30T09:29:11;9.75;;;5.00;;
71622;SDS011;59473;53.214;5.728;2023-08-30T09:31:38;12.50;;;5.13;;
71622;SDS011;59473;53.214;5.728;2023-08-30T09:34:05;9.90;;;4.47;;
71622;SDS011;59473;53.214;5.728;2023-08-30T09:36:34;10.13;;;5.00;;
71622;SDS011;59473;53.214;5.728;2023-08-30T09:39:02;9.27;;;4.53;;
71622;SDS011;59473;53.214;5.728;2023-08-30T09:41:28;11.90;;;4.60;;
71622;SDS011;59473;53.214;5.728;2023-08-30T09:43:54;9.60;;;5.03;;
71622;SDS011;59473;53.214;5.728;2023-08-30T09:46:19;8.03;;;3.70;;
71622;SDS011;59473;53.214;5.728;2023-08-30T09:48:44;7.77;;;4.00;;
71622;SDS011;59473;53.214;5.728;2023-08-30T09:51:10;8.40;;;3.70;;
71622;SDS011;59473;53.214;5.728;2023-08-30T09:53:37;9.02;;;4.10;;
71622;SDS011;59473;53.214;5.728;2023-08-30T09:56:05;10.70;;;3.83;;
71622;SDS011;59473;53.214;5.728;2023-08-30T09:58:33;9.37;;;4.20;;
71622;SDS011;59473;53.214;5.728;2023-08-30T10:00:58;9.00;;;4.40;;
71622;SDS011;59473;53.214;5.728;2023-08-30T10:03:24;7.72;;;4.03;;
71622;SDS011;59473;53.214;5.728;2023-08-30T10:05:49;9.23;;;4.00;;
71622;SDS011;59473;53.214;5.728;2023-08-30T10:08:14;8.43;;;3.80;;
71622;SDS011;59473;53.214;5.728;2023-08-30T10:10:40;8.53;;;3.83;;
71622;SDS011;59473;53.214;5.728;2023-08-30T10:13:06;9.75;;;4.20;;
71622;SDS011;59473;53.214;5.728;2023-08-30T10:15:33;9.17;;;3.80;;
71622;SDS011;59473;53.214;5.728;2023-08-30T10:17:58;10.25;;;3.80;;
71622;SDS011;59473;53.214;5.728;2023-08-30T10:20:24;8.27;;;3.70;;
71622;SDS011;59473;53.214;5.728;2023-08-30T10:22:49;9.43;;;4.00;;
71622;SDS011;59473;53.214;5.728;2023-08-30T10:25:20;8.40;;;4.13;;
71622;SDS011;59473;53.214;5.728;2023-08-30T10:27:46;9.50;;;4.15;;
71622;SDS011;59473;53.214;5.728;2023-08-30T10:30:13;9.35;;;4.30;;
71622;SDS011;59473;53.214;5.728;2023-08-30T10:32:39;9.90;;;4.27;;
71622;SDS011;59473;53.214;5.728;2023-08-30T10:35:05;9.80;;;4.75;;
71622;SDS011;59473;53.214;5.728;2023-08-30T10:37:30;10.27;;;4.30;;
71622;SDS011;59473;53.214;5.728;2023-08-30T10:40:01;7.63;;;4.10;;
71622;SDS011;59473;53.214;5.728;2023-08-30T10:42:29;10.48;;;4.57;;
71622;SDS011;59473;53.214;5.728;2023-08-30T10:45:04;9.67;;;4.90;;
71622;SDS011;59473;53.214;5.728;2023-08-30T10:47:30;11.95;;;5.05;;
71622;SDS011;59473;53.214;5.728;2023-08-30T10:49:59;9.95;;;5.10;;
71622;SDS011;59473;53.214;5.728;2023-08-30T10:52:25;13.30;;;5.23;;
71622;SDS011;59473;53.214;5.728;2023-08-30T10:54:51;10.52;;;4.75;;
71622;SDS011;59473;53.214;5.728;2023-08-30T10:57:24;11.35;;;4.70;;
71622;SDS011;59473;53.214;5.728;2023-08-30T11:02:34;10.55;;;4.80;;
71622;SDS011;59473;53.214;5.728;2023-08-30T11:05:01;10.45;;;5.05;;
71622;SDS011;59473;53.214;5.728;2023-08-30T11:07:27;11.68;;;5.40;;
71622;SDS011;59473;53.214;5.728;2023-08-30T11:09:53;9.53;;;5.10;;
71622;SDS011;59473;53.214;5.728;2023-08-30T11:12:18;13.02;;;4.90;;
71622;SDS011;59473;53.214;5.728;2023-08-30T11:14:47;9.77;;;5.00;;
71622;SDS011;59473;53.214;5.728;2023-08-30T11:17:12;10.83;;;4.97;;
71622;SDS011;59473;53.214;5.728;2023-08-30T11:19:37;9.73;;;4.83;;
71622;SDS011;59473;53.214;5.728;2023-08-30T11:22:02;10.20;;;5.03;;
71622;SDS011;59473;53.214;5.728;2023-08-30T11:24:28;10.52;;;5.15;;
71622;SDS011;59473;53.214;5.728;2023-08-30T11:26:53;12.70;;;4.83;;
71622;SDS011;59473;53.214;5.728;2023-08-30T11:29:19;9.67;;;5.27;;
71622;SDS011;59473;53.214;5.728;2023-08-30T11:31:44;12.30;;;5.20;;
71622;SDS011;59473;53.214;5.728;2023-08-30T11:34:10;9.05;;;4.60;;
71622;SDS011;59473;53.214;5.728;2023-08-30T11:36:36;12.97;;;5.10;;
71622;SDS011;59473;53.214;5.728;2023-08-30T11:39:02;10.38;;;5.10;;
71622;SDS011;59473;53.214;5.728;2023-08-30T11:41:27;9.07;;;4.70;;
71622;SDS011;59473;53.214;5.728;2023-08-30T11:43:53;14.43;;;5.63;;
71622;SDS011;59473;53.214;5.728;2023-08-30T11:46:19;10.73;;;5.28;;
71622;SDS011;59473;53.214;5.728;2023-08-30T11:48:48;10.00;;;5.55;;
71622;SDS011;59473;53.214;5.728;2023-08-30T11:51:14;14.00;;;5.30;;
71622;SDS011;59473;53.214;5.728;2023-08-30T11:53:39;10.87;;;5.73;;
71622;SDS011;59473;53.214;5.728;2023-08-30T11:56:05;9.97;;;5.60;;
71622;SDS011;59473;53.214;5.728;2023-08-30T11:58:33;10.48;;;5.25;;
71622;SDS011;59473;53.214;5.728;2023-08-30T12:00:59;9.85;;;5.07;;
71622;SDS011;59473;53.214;5.728;2023-08-30T12:03:28;9.00;;;5.40;;
71622;SDS011;59473;53.214;5.728;2023-08-30T12:05:56;10.87;;;5.57;;
71622;SDS011;59473;53.214;5.728;2023-08-30T12:08:23;10.25;;;5.85;;
71622;SDS011;59473;53.214;5.728;2023-08-30T12:10:49;9.55;;;5.72;;
71622;SDS011;59473;53.214;5.728;2023-08-30T12:15:46;9.50;;;5.25;;
71622;SDS011;59473;53.214;5.728;2023-08-30T12:18:11;9.37;;;4.93;;
71622;SDS011;59473;53.214;5.728;2023-08-30T12:20:36;9.93;;;5.73;;
71622;SDS011;59473;53.214;5.728;2023-08-30T12:23:02;8.43;;;4.50;;
71622;SDS011;59473;53.214;5.728;2023-08-30T12:25:28;7.72;;;3.50;;
71622;SDS011;59473;53.214;5.728;2023-08-30T12:27:55;7.68;;;3.50;;
71622;SDS011;59473;53.214;5.728;2023-08-30T12:30:21;7.47;;;3.60;;
71622;SDS011;59473;53.214;5.728;2023-08-30T12:32:46;7.40;;;4.03;;
71622;SDS011;59473;53.214;5.728;2023-08-30T12:35:12;7.55;;;3.75;;
71622;SDS011;59473;53.214;5.728;2023-08-30T12:37:37;9.23;;;3.47;;
71622;SDS011;59473;53.214;5.728;2023-08-30T12:40:02;6.47;;;3.50;;
71622;SDS011;59473;53.214;5.728;2023-08-30T12:42:28;7.40;;;3.63;;
71622;SDS011;59473;53.214;5.728;2023-08-30T12:44:53;8.07;;;3.53;;
71622;SDS011;59473;53.214;5.728;2023-08-30T12:47:18;7.40;;;3.80;;
71622;SDS011;59473;53.214;5.728;2023-08-30T12:49:44;8.07;;;3.77;;
71622;SDS011;59473;53.214;5.728;2023-08-30T12:52:09;7.27;;;3.70;;
71622;SDS011;59473;53.214;5.728;2023-08-30T12:54:34;6.90;;;3.80;;
71622;SDS011;59473;53.214;5.728;2023-08-30T12:56:59;6.43;;;3.50;;
71622;SDS011;59473;53.214;5.728;2023-08-30T12:59:25;7.87;;;4.03;;
71622;SDS011;59473;53.214;5.728;2023-08-30T13:01:50;7.37;;;4.00;;
71622;SDS011;59473;53.214;5.728;2023-08-30T13:04:15;7.60;;;4.23;;
71622;SDS011;59473;53.214;5.728;2023-08-30T13:06:40;7.60;;;4.00;;
71622;SDS011;59473;53.214;5.728;2023-08-30T13:09:06;6.83;;;3.90;;
71622;SDS011;59473;53.214;5.728;2023-08-30T13:11:31;8.27;;;4.47;;
71622;SDS011;59473;53.214;5.728;2023-08-30T13:13:57;8.53;;;4.80;;
71622;SDS011;59473;53.214;5.728;2023-08-30T13:16:23;9.38;;;4.30;;
71622;SDS011;59473;53.214;5.728;2023-08-30T13:18:48;11.40;;;4.77;;
71622;SDS011;59473;53.214;5.728;2023-08-30T13:21:13;10.57;;;4.20;;
71622;SDS011;59473;53.214;5.728;2023-08-30T13:23:38;8.07;;;3.83;;
71622;SDS011;59473;53.214;5.728;2023-08-30T13:26:04;10.17;;;4.10;;
71622;SDS011;59473;53.214;5.728;2023-08-30T13:28:29;7.50;;;3.53;;
71622;SDS011;59473;53.214;5.728;2023-08-30T13:30:54;7.60;;;3.30;;
71622;SDS011;59473;53.214;5.728;2023-08-30T13:33:19;8.57;;;4.10;;
71622;SDS011;59473;53.214;5.728;2023-08-30T13:35:48;6.97;;;3.40;;
71622;SDS011;59473;53.214;5.728;2023-08-30T13:38:13;7.15;;;3.28;;
71622;SDS011;59473;53.214;5.728;2023-08-30T13:40:38;13.33;;;3.07;;
71622;SDS011;59473;53.214;5.728;2023-08-30T13:43:04;6.93;;;1.90;;
71622;SDS011;59473;53.214;5.728;2023-08-30T13:45:29;7.83;;;2.47;;
71622;SDS011;59473;53.214;5.728;2023-08-30T13:47:54;7.63;;;2.00;;
71622;SDS011;59473;53.214;5.728;2023-08-30T13:50:20;8.70;;;2.57;;
71622;SDS011;59473;53.214;5.728;2023-08-30T13:52:45;8.30;;;2.23;;
71622;SDS011;59473;53.214;5.728;2023-08-30T13:55:10;7.70;;;1.80;;
71622;SDS011;59473;53.214;5.728;2023-08-30T13:57:35;7.43;;;2.07;;
71622;SDS011;59473;53.214;5.728;2023-08-30T14:00:00;9.97;;;2.37;;
71622;SDS011;59473;53.214;5.728;2023-08-30T14:02:31;7.43;;;2.13;;
71622;SDS011;59473;53.214;5.728;2023-08-30T14:04:57;9.05;;;2.17;;
71622;SDS011;59473;53.214;5.728;2023-08-30T14:07:22;10.83;;;2.13;;
71622;SDS011;59473;53.214;5.728;2023-08-30T14:09:47;8.87;;;2.40;;
71622;SDS011;59473;53.214;5.728;2023-08-30T14:12:13;11.23;;;2.30;;
71622;SDS011;59473;53.214;5.728;2023-08-30T14:14:38;7.43;;;2.00;;
71622;SDS011;59473;53.214;5.728;2023-08-30T14:17:03;8.20;;;2.50;;
71622;SDS011;59473;53.214;5.728;2023-08-30T14:19:28;7.50;;;1.80;;
71622;SDS011;59473;53.214;5.728;2023-08-30T14:21:53;7.47;;;1.60;;
71622;SDS011;59473;53.214;5.728;2023-08-30T14:24:20;5.50;;;1.50;;
71622;SDS011;59473;53.214;5.728;2023-08-30T14:26:46;5.73;;;1.30;;
71622;SDS011;59473;53.214;5.728;2023-08-30T14:29:11;9.07;;;1.60;;
71622;SDS011;59473;53.214;5.728;2023-08-30T14:31:36;7.07;;;1.40;;
71622;SDS011;59473;53.214;5.728;2023-08-30T14:34:01;6.73;;;1.40;;
71622;SDS011;59473;53.214;5.728;2023-08-30T14:36:27;7.20;;;1.70;;
71622;SDS011;59473;53.214;5.728;2023-08-30T14:38:52;8.17;;;1.60;;